createdAt,value
2017-10-03T00:00:28.265Z,99.99
2017-10-03T00:01:28.432Z,99.99
2017-10-03T00:02:28.117Z,99.99
2017-10-03T00:03:28.431Z,99.99
2017-10-03T00:04:28.118Z,99.99
2017-10-03T00:05:28.430Z,99.99
2017-10-03T00:06:28.424Z,99.99
2017-10-03T00:07:28.120Z,99.99
2017-10-03T00:08:28.426Z,99.99
2017-10-03T00:09:28.436Z,99.99
2017-10-03T00:10:28.431Z,99.99
2017-10-03T00:11:28.429Z,99.99
2017-10-03T00:12:28.428Z,99.99
2017-10-03T00:13:28.430Z,99.99
2017-10-03T00:14:28.436Z,99.99
2017-10-03T00:15:28.616Z,99.99
2017-10-03T00:16:28.121Z,99.99
2017-10-03T00:17:28.121Z,99.99
2017-10-03T00:18:28.440Z,99.99
2017-10-03T00:19:28.431Z,99.99
2017-10-03T00:20:28.432Z,99.99
2017-10-03T00:21:28.432Z,99.99
2017-10-03T00:22:28.128Z,99.99
2017-10-03T00:23:28.123Z,99.99
2017-10-03T00:24:28.434Z,99.99
2017-10-03T00:25:28.441Z,99.99
2017-10-03T00:26:28.123Z,99.99
2017-10-03T00:27:28.126Z,99.99
2017-10-03T00:28:28.123Z,99.99
2017-10-03T00:29:28.433Z,99.99
2017-10-03T00:30:29.444Z,99.99
2017-10-03T00:31:28.125Z,99.99
2017-10-03T00:32:28.433Z,99.99
2017-10-03T00:33:28.433Z,99.99
2017-10-03T00:34:28.433Z,99.99
2017-10-03T00:35:28.436Z,99.99
2017-10-03T00:36:28.446Z,99.99
2017-10-03T00:37:28.433Z,99.99
2017-10-03T00:38:28.433Z,99.99
2017-10-03T00:39:28.437Z,99.99
2017-10-03T00:40:28.440Z,99.99
2017-10-03T00:41:28.449Z,99.99
2017-10-03T00:42:28.436Z,99.99
2017-10-03T00:43:28.437Z,99.99
2017-10-03T00:44:28.128Z,99.99
2017-10-03T00:45:28.134Z,99.99
2017-10-03T00:46:28.134Z,99.99
2017-10-03T00:47:28.133Z,99.99
2017-10-03T00:48:28.127Z,99.99
2017-10-03T00:49:28.438Z,99.99
2017-10-03T00:50:28.129Z,99.99
2017-10-03T00:51:28.139Z,99.99
2017-10-03T00:52:28.448Z,99.99
2017-10-03T00:53:28.130Z,99.99
2017-10-03T00:54:28.133Z,99.99
2017-10-03T00:55:28.135Z,99.99
2017-10-03T00:56:28.442Z,99.99
2017-10-03T00:57:28.441Z,99.99
2017-10-03T00:58:28.442Z,99.99
2017-10-03T00:59:28.132Z,99.99
2017-10-03T01:00:32.840Z,99.99
2017-10-03T01:01:28.444Z,99.99
2017-10-03T01:02:28.141Z,99.99
2017-10-03T01:03:28.136Z,99.99
2017-10-03T01:04:28.142Z,99.99
2017-10-03T01:05:28.134Z,99.99
2017-10-03T01:06:28.139Z,99.99
2017-10-03T01:07:28.446Z,99.99
2017-10-03T01:08:28.451Z,99.99
2017-10-03T01:09:28.449Z,99.99
2017-10-03T01:10:28.138Z,99.99
2017-10-03T01:11:28.136Z,99.99
2017-10-03T01:12:28.453Z,99.99
2017-10-03T01:13:28.445Z,99.99
2017-10-03T01:14:28.453Z,99.99
2017-10-03T01:15:28.451Z,99.99
2017-10-03T01:16:28.456Z,99.99
2017-10-03T01:17:28.486Z,99.99
2017-10-03T01:18:28.146Z,99.99
2017-10-03T01:19:28.148Z,99.99
2017-10-03T01:20:28.461Z,99.99
2017-10-03T01:21:28.152Z,99.99
2017-10-03T01:22:28.458Z,99.99
2017-10-03T01:23:28.148Z,99.99
2017-10-03T01:24:28.159Z,99.99
2017-10-03T01:25:28.458Z,99.99
2017-10-03T01:26:28.459Z,99.99
2017-10-03T01:27:28.155Z,99.99
2017-10-03T01:28:28.457Z,99.99
2017-10-03T01:29:28.467Z,99.99
2017-10-03T01:30:28.465Z,99.99
2017-10-03T01:31:28.474Z,99.99
2017-10-03T01:32:28.464Z,99.99
2017-10-03T01:33:28.461Z,99.99
2017-10-03T01:34:28.466Z,99.99
2017-10-03T01:35:28.470Z,99.99
2017-10-03T01:36:28.464Z,99.99
2017-10-03T01:37:28.157Z,99.99
2017-10-03T01:38:28.467Z,99.99
2017-10-03T01:39:28.154Z,99.99
2017-10-03T01:40:28.165Z,99.99
2017-10-03T01:41:28.465Z,99.99
2017-10-03T01:42:28.170Z,99.99
2017-10-03T01:43:28.472Z,99.99
2017-10-03T01:44:28.468Z,99.99
2017-10-03T01:45:28.479Z,99.99
2017-10-03T01:46:28.478Z,99.99
2017-10-03T01:47:28.472Z,99.99
2017-10-03T01:48:28.475Z,99.99
2017-10-03T01:49:28.163Z,99.99
2017-10-03T01:50:28.479Z,99.99
2017-10-03T01:51:28.473Z,99.99
2017-10-03T01:52:28.470Z,99.99
2017-10-03T01:53:28.167Z,99.99
2017-10-03T01:54:28.166Z,99.99
2017-10-03T01:55:28.171Z,99.99
2017-10-03T01:56:28.262Z,99.99
2017-10-03T01:57:28.488Z,99.99
2017-10-03T01:58:28.162Z,99.99
2017-10-03T01:59:28.476Z,99.99
2017-10-03T02:00:28.168Z,99.99
2017-10-03T02:01:32.472Z,99.99
2017-10-03T02:02:28.477Z,99.99
2017-10-03T02:03:28.171Z,99.99
2017-10-03T02:04:28.480Z,99.99
2017-10-03T02:05:28.169Z,99.99
2017-10-03T02:06:28.166Z,99.99
2017-10-03T02:07:28.179Z,99.99
2017-10-03T02:08:28.171Z,99.99
2017-10-03T02:09:28.175Z,99.99
2017-10-03T02:10:28.188Z,99.99
2017-10-03T02:11:28.487Z,99.99
2017-10-03T02:12:28.175Z,99.99
2017-10-03T02:13:28.482Z,99.99
2017-10-03T02:14:28.486Z,99.99
2017-10-03T02:15:28.358Z,99.99
2017-10-03T02:16:28.182Z,99.99
2017-10-03T02:17:28.487Z,99.99
2017-10-03T02:18:28.489Z,99.99
2017-10-03T02:19:28.499Z,99.99
2017-10-03T02:20:28.485Z,99.99
2017-10-03T02:21:28.484Z,99.99
2017-10-03T02:22:28.489Z,99.99
2017-10-03T02:23:28.178Z,99.99
2017-10-03T02:24:28.488Z,99.99
2017-10-03T02:25:28.179Z,99.99
2017-10-03T02:26:28.491Z,99.99
2017-10-03T02:27:28.490Z,99.99
2017-10-03T02:28:28.182Z,99.99
2017-10-03T02:29:28.516Z,99.99
2017-10-03T02:30:28.198Z,99.99
2017-10-03T02:31:28.530Z,99.99
2017-10-03T02:32:28.499Z,99.99
2017-10-03T02:33:28.494Z,99.99
2017-10-03T02:34:28.189Z,99.99
2017-10-03T02:35:28.495Z,99.99
2017-10-03T02:36:28.494Z,99.99
2017-10-03T02:37:28.497Z,99.99
2017-10-03T02:38:28.497Z,99.99
2017-10-03T02:39:28.495Z,99.99
2017-10-03T02:40:28.503Z,99.99
2017-10-03T02:41:28.193Z,99.99
2017-10-03T02:42:28.504Z,99.99
2017-10-03T02:43:28.195Z,99.99
2017-10-03T02:44:28.503Z,99.99
2017-10-03T02:45:28.506Z,99.99
2017-10-03T02:46:28.504Z,99.99
2017-10-03T02:47:28.504Z,99.99
2017-10-03T02:48:28.506Z,99.99
2017-10-03T02:49:28.199Z,99.99
2017-10-03T02:50:28.508Z,99.99
2017-10-03T02:51:28.505Z,99.99
2017-10-03T02:52:28.195Z,99.99
2017-10-03T02:53:28.511Z,99.99
2017-10-03T02:54:28.199Z,99.99
2017-10-03T02:55:28.511Z,99.99
2017-10-03T02:56:28.507Z,99.99
2017-10-03T02:57:28.200Z,99.99
2017-10-03T02:58:28.511Z,99.99
2017-10-03T02:59:28.210Z,99.99
2017-10-03T03:00:28.203Z,99.99
2017-10-03T03:01:28.515Z,99.99
2017-10-03T03:02:28.214Z,99.99
2017-10-03T03:03:28.211Z,99.99
2017-10-03T03:04:28.207Z,99.99
2017-10-03T03:05:28.519Z,99.99
2017-10-03T03:06:28.520Z,99.99
2017-10-03T03:07:28.520Z,99.99
2017-10-03T03:08:28.518Z,99.99
2017-10-03T03:09:28.422Z,99.99
2017-10-03T03:10:28.520Z,99.99
2017-10-03T03:11:28.522Z,99.99
2017-10-03T03:12:28.214Z,99.99
2017-10-03T03:13:28.213Z,99.99
2017-10-03T03:14:28.519Z,99.99
2017-10-03T03:15:28.802Z,99.99
2017-10-03T03:16:28.525Z,99.99
2017-10-03T03:17:28.523Z,99.99
2017-10-03T03:18:28.531Z,99.99
2017-10-03T03:19:28.530Z,99.99
2017-10-03T03:20:28.528Z,99.99
2017-10-03T03:21:28.538Z,99.99
2017-10-03T03:22:28.529Z,99.99
2017-10-03T03:23:28.529Z,99.99
2017-10-03T03:24:28.530Z,99.99
2017-10-03T03:25:28.225Z,99.99
2017-10-03T03:26:28.740Z,99.99
2017-10-03T03:27:28.530Z,99.99
2017-10-03T03:28:28.226Z,99.99
2017-10-03T03:29:28.224Z,99.99
2017-10-03T03:30:28.229Z,99.99
2017-10-03T03:31:28.227Z,99.99
2017-10-03T03:32:28.838Z,99.99
2017-10-03T03:33:28.534Z,99.99
2017-10-03T03:34:28.229Z,99.99
2017-10-03T03:35:28.538Z,99.99
2017-10-03T03:36:28.566Z,99.99
2017-10-03T03:37:28.537Z,99.99
2017-10-03T03:38:28.237Z,99.99
2017-10-03T03:39:28.539Z,99.99
2017-10-03T03:40:28.543Z,99.99
2017-10-03T03:41:28.234Z,99.99
2017-10-03T03:42:28.542Z,99.99
2017-10-03T03:43:28.236Z,99.99
2017-10-03T03:44:28.235Z,99.99
2017-10-03T03:45:28.544Z,99.99
2017-10-03T03:46:28.545Z,99.99
2017-10-03T03:47:28.549Z,99.99
2017-10-03T03:48:28.236Z,99.99
2017-10-03T03:49:28.543Z,99.99
2017-10-03T03:50:28.549Z,99.99
2017-10-03T03:51:28.235Z,99.99
2017-10-03T03:52:28.541Z,99.99
2017-10-03T03:53:28.539Z,99.99
2017-10-03T03:54:28.540Z,99.99
2017-10-03T03:55:28.543Z,99.99
2017-10-03T03:56:28.546Z,99.99
2017-10-03T03:57:28.539Z,99.99
2017-10-03T03:58:28.225Z,99.99
2017-10-03T03:59:28.533Z,99.99
2017-10-03T04:00:28.226Z,99.99
2017-10-03T04:01:28.531Z,99.99
2017-10-03T04:02:30.682Z,99.99
2017-10-03T04:03:28.530Z,99.99
2017-10-03T04:04:28.527Z,99.99
2017-10-03T04:05:28.221Z,99.99
2017-10-03T04:06:28.521Z,99.99
2017-10-03T04:07:28.211Z,99.99
2017-10-03T04:08:28.211Z,99.99
2017-10-03T04:09:28.515Z,99.99
2017-10-03T04:10:28.522Z,99.99
2017-10-03T04:11:28.513Z,99.99
2017-10-03T04:12:28.511Z,99.99
2017-10-03T04:13:28.513Z,99.99
2017-10-03T04:14:28.511Z,99.99
2017-10-03T04:15:28.511Z,99.99
2017-10-03T04:16:28.503Z,99.99
2017-10-03T04:17:28.217Z,99.99
2017-10-03T04:18:28.202Z,99.99
2017-10-03T04:19:28.502Z,99.99
2017-10-03T04:20:28.189Z,99.99
2017-10-03T04:21:28.494Z,99.99
2017-10-03T04:22:28.494Z,99.99
2017-10-03T04:23:28.211Z,99.99
2017-10-03T04:24:28.494Z,99.99
2017-10-03T04:25:28.193Z,99.99
2017-10-03T04:26:28.500Z,99.99
2017-10-03T04:27:28.184Z,99.99
2017-10-03T04:28:28.484Z,99.99
2017-10-03T04:29:28.480Z,99.99
2017-10-03T04:30:28.483Z,99.99
2017-10-03T04:31:28.174Z,99.99
2017-10-03T04:32:29.967Z,99.99
2017-10-03T04:33:28.483Z,99.99
2017-10-03T04:34:28.468Z,99.99
2017-10-03T04:35:28.167Z,99.99
2017-10-03T04:36:28.166Z,99.99
2017-10-03T04:37:28.465Z,99.99
2017-10-03T04:38:28.159Z,99.99
2017-10-03T04:39:28.461Z,99.99
2017-10-03T04:40:28.462Z,99.99
2017-10-03T04:41:28.155Z,99.99
2017-10-03T04:42:28.452Z,99.99
2017-10-03T04:43:28.452Z,99.99
2017-10-03T04:44:28.162Z,99.99
2017-10-03T04:45:28.165Z,99.99
2017-10-03T04:46:28.160Z,99.99
2017-10-03T04:47:28.165Z,99.99
2017-10-03T04:48:28.443Z,99.99
2017-10-03T04:49:28.439Z,99.99
2017-10-03T04:50:28.444Z,99.99
2017-10-03T04:51:28.144Z,99.99
2017-10-03T04:52:28.134Z,99.99
2017-10-03T04:53:28.429Z,99.99
2017-10-03T04:54:28.430Z,99.99
2017-10-03T04:55:28.130Z,99.99
2017-10-03T04:56:28.423Z,99.99
2017-10-03T04:57:28.428Z,99.99
2017-10-03T04:58:28.419Z,99.99
2017-10-03T04:59:28.420Z,99.99
2017-10-03T05:00:28.111Z,99.99
2017-10-03T05:01:28.411Z,99.99
2017-10-03T05:02:28.412Z,99.99
2017-10-03T05:03:28.431Z,99.99
2017-10-03T05:04:28.402Z,99.99
2017-10-03T05:05:28.420Z,99.99
2017-10-03T05:06:28.105Z,99.99
2017-10-03T05:07:28.088Z,99.99
2017-10-03T05:08:28.394Z,99.99
2017-10-03T05:09:28.391Z,99.99
2017-10-03T05:10:28.406Z,99.99
2017-10-03T05:11:28.390Z,99.99
2017-10-03T05:12:28.395Z,99.99
2017-10-03T05:13:28.094Z,99.99
2017-10-03T05:14:28.380Z,99.99
2017-10-03T05:15:28.393Z,99.99
2017-10-03T05:16:28.377Z,99.99
2017-10-03T05:17:28.379Z,99.99
2017-10-03T05:18:28.372Z,99.99
2017-10-03T05:19:28.374Z,99.99
2017-10-03T05:20:28.407Z,99.99
2017-10-03T05:21:28.366Z,99.99
2017-10-03T05:22:28.365Z,99.99
2017-10-03T05:23:28.054Z,99.99
2017-10-03T05:24:28.362Z,99.99
2017-10-03T05:25:28.361Z,99.99
2017-10-03T05:26:28.052Z,99.99
2017-10-03T05:27:28.044Z,99.99
2017-10-03T05:28:28.373Z,99.99
2017-10-03T05:29:28.117Z,99.99
2017-10-03T05:30:28.052Z,99.99
2017-10-03T05:31:28.346Z,99.99
2017-10-03T05:32:28.341Z,99.99
2017-10-03T05:33:28.334Z,99.99
2017-10-03T05:34:28.030Z,99.99
2017-10-03T05:35:28.336Z,99.99
2017-10-03T05:36:28.336Z,99.99
2017-10-03T05:37:28.329Z,99.99
2017-10-03T05:38:28.332Z,99.99
2017-10-03T05:39:28.331Z,99.99
2017-10-03T05:40:28.330Z,99.99
2017-10-03T05:41:28.020Z,99.99
2017-10-03T05:42:28.319Z,99.99
2017-10-03T05:43:28.331Z,99.99
2017-10-03T05:44:28.010Z,99.99
2017-10-03T05:45:28.311Z,99.99
2017-10-03T05:46:28.004Z,99.99
2017-10-03T05:47:28.310Z,99.99
2017-10-03T05:48:28.303Z,99.99
2017-10-03T05:49:27.998Z,99.99
2017-10-03T05:50:28.303Z,99.99
2017-10-03T05:51:27.995Z,99.99
2017-10-03T05:52:27.998Z,99.99
2017-10-03T05:53:28.294Z,99.99
2017-10-03T05:54:28.294Z,99.99
2017-10-03T05:55:28.295Z,99.99
2017-10-03T05:56:27.993Z,99.99
2017-10-03T05:57:28.286Z,99.99
2017-10-03T05:58:28.288Z,99.99
2017-10-03T05:59:28.289Z,99.99
2017-10-03T06:00:28.285Z,99.99
2017-10-03T06:01:28.280Z,99.99
2017-10-03T06:02:28.276Z,99.99
2017-10-03T06:03:31.144Z,99.99
2017-10-03T06:04:28.274Z,99.99
2017-10-03T06:05:27.967Z,99.99
2017-10-03T06:06:28.318Z,99.99
2017-10-03T06:07:27.962Z,99.99
2017-10-03T06:08:29.079Z,99.99
2017-10-03T06:09:27.954Z,99.99
2017-10-03T06:10:28.269Z,99.99
2017-10-03T06:11:28.260Z,99.99
2017-10-03T06:12:28.257Z,99.99
2017-10-03T06:13:28.257Z,99.99
2017-10-03T06:14:27.945Z,99.99
2017-10-03T06:15:27.951Z,99.99
2017-10-03T06:16:28.251Z,99.99
2017-10-03T06:17:28.252Z,99.99
2017-10-03T06:18:27.939Z,99.99
2017-10-03T06:19:28.243Z,99.99
2017-10-03T06:20:28.245Z,99.99
2017-10-03T06:21:28.239Z,99.99
2017-10-03T06:22:28.239Z,99.99
2017-10-03T06:23:28.234Z,99.99
2017-10-03T06:24:27.925Z,99.99
2017-10-03T06:25:28.240Z,99.99
2017-10-03T06:26:27.928Z,99.99
2017-10-03T06:27:27.926Z,99.99
2017-10-03T06:28:27.918Z,99.99
2017-10-03T06:29:27.914Z,99.99
2017-10-03T06:30:27.932Z,99.99
2017-10-03T06:31:28.222Z,99.99
2017-10-03T06:32:27.909Z,99.99
2017-10-03T06:33:28.223Z,99.99
2017-10-03T06:34:27.907Z,99.99
2017-10-03T06:35:28.221Z,99.99
2017-10-03T06:36:27.902Z,99.99
2017-10-03T06:37:27.898Z,99.99
2017-10-03T06:38:28.208Z,99.99
2017-10-03T06:39:28.207Z,99.99
2017-10-03T06:40:28.211Z,99.99
2017-10-03T06:41:28.203Z,99.99
2017-10-03T06:42:28.204Z,99.99
2017-10-03T06:43:27.892Z,99.99
2017-10-03T06:44:27.904Z,99.99
2017-10-03T06:45:28.205Z,99.99
2017-10-03T06:46:28.202Z,99.99
2017-10-03T06:47:27.902Z,99.99
2017-10-03T06:48:28.206Z,99.99
2017-10-03T06:49:28.190Z,99.99
2017-10-03T06:50:28.190Z,99.99
2017-10-03T06:51:28.190Z,99.99
2017-10-03T06:52:28.182Z,99.99
2017-10-03T06:53:27.872Z,99.99
2017-10-03T06:54:28.178Z,99.99
2017-10-03T06:55:28.184Z,99.99
2017-10-03T06:56:28.180Z,99.99
2017-10-03T06:57:28.203Z,99.99
2017-10-03T06:58:28.180Z,99.99
2017-10-03T06:59:28.199Z,99.99
2017-10-03T07:00:28.178Z,99.99
2017-10-03T07:01:28.168Z,99.99
2017-10-03T07:02:28.168Z,99.99
2017-10-03T07:03:27.857Z,99.99
2017-10-03T07:04:28.665Z,99.99
2017-10-03T07:05:27.856Z,99.99
2017-10-03T07:06:28.166Z,99.99
2017-10-03T07:07:28.157Z,99.99
2017-10-03T07:08:27.852Z,99.99
2017-10-03T07:09:28.156Z,99.99
2017-10-03T07:10:27.850Z,99.99
2017-10-03T07:11:28.158Z,99.99
2017-10-03T07:12:28.159Z,99.99
2017-10-03T07:13:28.157Z,99.99
2017-10-03T07:14:28.158Z,99.99
2017-10-03T07:15:27.850Z,99.99
2017-10-03T07:16:27.839Z,99.99
2017-10-03T07:17:28.150Z,99.99
2017-10-03T07:18:28.147Z,99.99
2017-10-03T07:19:27.832Z,99.99
2017-10-03T07:20:27.834Z,99.99
2017-10-03T07:21:28.138Z,99.99
2017-10-03T07:22:28.137Z,99.99
2017-10-03T07:23:28.135Z,99.99
2017-10-03T07:24:27.827Z,99.99
2017-10-03T07:25:28.136Z,99.99
2017-10-03T07:26:28.130Z,99.99
2017-10-03T07:27:28.128Z,99.99
2017-10-03T07:28:27.820Z,99.99
2017-10-03T07:29:28.128Z,99.99
2017-10-03T07:30:28.123Z,99.99
2017-10-03T07:31:28.123Z,99.99
2017-10-03T07:32:27.815Z,99.99
2017-10-03T07:33:28.129Z,99.99
2017-10-03T07:34:28.126Z,99.99
2017-10-03T07:35:28.137Z,99.99
2017-10-03T07:36:28.116Z,99.99
2017-10-03T07:37:27.805Z,99.99
2017-10-03T07:38:28.117Z,99.99
2017-10-03T07:39:27.808Z,99.99
2017-10-03T07:40:28.113Z,99.99
2017-10-03T07:41:28.110Z,99.99
2017-10-03T07:42:28.109Z,99.99
2017-10-03T07:43:28.112Z,99.99
2017-10-03T07:44:28.111Z,99.99
2017-10-03T07:45:28.116Z,99.99
2017-10-03T07:46:27.793Z,99.99
2017-10-03T07:47:27.793Z,99.99
2017-10-03T07:48:27.794Z,99.99
2017-10-03T07:49:28.097Z,99.99
2017-10-03T07:50:27.786Z,99.99
2017-10-03T07:51:27.784Z,99.99
2017-10-03T07:52:27.782Z,99.99
2017-10-03T07:53:28.092Z,99.99
2017-10-03T07:54:28.085Z,99.99
2017-10-03T07:55:27.784Z,99.99
2017-10-03T07:56:28.088Z,99.99
2017-10-03T07:57:28.118Z,99.99
2017-10-03T07:58:27.772Z,99.99
2017-10-03T07:59:28.080Z,99.99
2017-10-03T08:00:27.777Z,99.99
2017-10-03T08:01:28.084Z,99.99
2017-10-03T08:02:28.082Z,99.99
2017-10-03T08:03:28.078Z,99.99
2017-10-03T08:04:28.073Z,99.99
2017-10-03T08:05:28.080Z,99.99
2017-10-03T08:06:28.070Z,99.99
2017-10-03T08:07:28.069Z,99.99
2017-10-03T08:08:27.772Z,99.99
2017-10-03T08:09:28.100Z,99.99
2017-10-03T08:10:28.068Z,99.99
2017-10-03T08:11:27.756Z,99.99
2017-10-03T08:12:28.067Z,99.99
2017-10-03T08:13:28.069Z,99.99
2017-10-03T08:14:27.755Z,99.99
2017-10-03T08:15:27.754Z,99.99
2017-10-03T08:16:28.067Z,99.99
2017-10-03T08:17:28.069Z,99.99
2017-10-03T08:18:28.070Z,99.99
2017-10-03T08:19:28.067Z,99.99
2017-10-03T08:20:31.970Z,99.99
2017-10-03T08:21:27.750Z,99.99
2017-10-03T08:22:28.062Z,99.99
2017-10-03T08:23:28.061Z,99.99
2017-10-03T08:24:28.064Z,99.99
2017-10-03T08:25:28.073Z,99.99
2017-10-03T08:26:28.055Z,99.99
2017-10-03T08:27:28.054Z,99.99
2017-10-03T08:28:28.057Z,99.99
2017-10-03T08:29:27.771Z,99.99
2017-10-03T08:30:27.751Z,99.99
2017-10-03T08:31:28.057Z,99.99
2017-10-03T08:32:28.058Z,99.99
2017-10-03T08:33:27.744Z,99.99
2017-10-03T08:34:28.052Z,99.99
2017-10-03T08:35:28.052Z,99.99
2017-10-03T08:36:28.051Z,99.99
2017-10-03T08:37:28.053Z,99.99
2017-10-03T08:38:28.052Z,99.99
2017-10-03T08:39:28.050Z,99.99
2017-10-03T08:40:27.744Z,99.99
2017-10-03T08:41:27.752Z,99.99
2017-10-03T08:42:28.054Z,99.99
2017-10-03T08:43:28.047Z,99.99
2017-10-03T08:44:27.736Z,99.99
2017-10-03T08:45:28.047Z,99.99
2017-10-03T08:46:28.049Z,99.99
2017-10-03T08:47:27.755Z,99.99
2017-10-03T08:48:28.062Z,99.99
2017-10-03T08:49:28.067Z,99.99
2017-10-03T08:50:27.750Z,99.99
2017-10-03T08:51:27.747Z,99.99
2017-10-03T08:52:28.065Z,99.99
2017-10-03T08:53:27.743Z,99.99
2017-10-03T08:54:27.741Z,99.99
2017-10-03T08:55:28.045Z,99.99
2017-10-03T08:56:28.046Z,99.99
2017-10-03T08:57:27.739Z,99.99
2017-10-03T08:58:27.739Z,99.99
2017-10-03T08:59:27.741Z,99.99
2017-10-03T09:00:27.744Z,99.99
2017-10-03T09:01:28.045Z,98.95
2017-10-03T09:02:27.744Z,98.43
2017-10-03T09:03:28.049Z,97.47
2017-10-03T09:04:28.060Z,96.99
2017-10-03T09:05:27.742Z,96.03
2017-10-03T09:06:28.219Z,94.69
2017-10-03T09:07:28.055Z,95.75
2017-10-03T09:08:28.056Z,94.69
2017-10-03T09:09:28.052Z,94.89
2017-10-03T09:10:27.741Z,95.51
2017-10-03T09:11:27.747Z,97.33
2017-10-03T09:12:28.053Z,98.38
2017-10-03T09:13:28.055Z,97.23
2017-10-03T09:14:27.748Z,97.13
2017-10-03T09:15:27.745Z,95.61
2017-10-03T09:16:28.051Z,92.25
2017-10-03T09:17:27.743Z,93.59
2017-10-03T09:18:27.742Z,94.74
2017-10-03T09:19:28.053Z,90.19
2017-10-03T09:20:27.765Z,88.85
2017-10-03T09:21:28.054Z,90.09
2017-10-03T09:22:27.748Z,90.09
2017-10-03T09:23:28.053Z,90.91
2017-10-03T09:24:27.749Z,90.91
2017-10-03T09:25:28.058Z,89.37
2017-10-03T09:26:27.765Z,88.42
2017-10-03T09:27:28.060Z,87.46
2017-10-03T09:28:28.058Z,88.13
2017-10-03T09:29:28.058Z,88.99
2017-10-03T09:30:28.064Z,88.51
2017-10-03T09:31:27.752Z,87.37
2017-10-03T09:32:28.069Z,91
2017-10-03T09:33:27.754Z,89.66
2017-10-03T09:34:28.066Z,88.51
2017-10-03T09:35:28.066Z,88.42
2017-10-03T09:36:31.025Z,87.41
2017-10-03T09:37:28.068Z,84.72
2017-10-03T09:38:28.070Z,82.81
2017-10-03T09:39:27.761Z,82.9
2017-10-03T09:40:27.763Z,82.42
2017-10-03T09:41:28.081Z,84.53
2017-10-03T09:42:28.077Z,85.39
2017-10-03T09:43:28.079Z,85.88
2017-10-03T09:44:27.768Z,83.29
2017-10-03T09:45:28.078Z,83.29
2017-10-03T09:46:28.076Z,84.72
2017-10-03T09:47:28.081Z,87.02
2017-10-03T09:48:27.834Z,86.35
2017-10-03T09:49:28.083Z,84.63
2017-10-03T09:50:27.779Z,84.86
2017-10-03T09:51:27.787Z,83.04
2017-10-03T09:52:27.786Z,82.65
2017-10-03T09:53:28.087Z,82.85
2017-10-03T09:54:27.784Z,81.6
2017-10-03T09:55:28.096Z,79.97
2017-10-03T09:56:27.788Z,80.07
2017-10-03T09:57:28.098Z,81.41
2017-10-03T09:58:27.789Z,80.64
2017-10-03T09:59:28.095Z,80.99
2017-10-03T10:00:27.791Z,80.22
2017-10-03T10:01:28.100Z,79.74
2017-10-03T10:02:28.105Z,79.93
2017-10-03T10:03:28.102Z,80.03
2017-10-03T10:04:27.811Z,81.46
2017-10-03T10:05:28.126Z,81.95
2017-10-03T10:06:27.801Z,83.19
2017-10-03T10:07:28.107Z,82.04
2017-10-03T10:08:28.155Z,81.18
2017-10-03T10:09:28.125Z,82.52
2017-10-03T10:10:28.125Z,81.56
2017-10-03T10:11:27.840Z,79.16
2017-10-03T10:12:28.120Z,77.19
2017-10-03T10:13:28.124Z,76.71
2017-10-03T10:14:27.812Z,76.42
2017-10-03T10:15:27.810Z,75.71
2017-10-03T10:16:28.126Z,78.11
2017-10-03T10:17:28.131Z,77.44
2017-10-03T10:18:28.131Z,78.02
2017-10-03T10:19:27.839Z,78.4
2017-10-03T10:20:28.128Z,78.64
2017-10-03T10:21:28.131Z,78.55
2017-10-03T10:22:28.132Z,78.27
2017-10-03T10:23:28.131Z,78.64
2017-10-03T10:24:28.135Z,78.84
2017-10-03T10:25:27.837Z,79.22
2017-10-03T10:26:27.824Z,78.07
2017-10-03T10:27:28.133Z,78.88
2017-10-03T10:28:27.826Z,77.63
2017-10-03T10:29:28.137Z,75.62
2017-10-03T10:30:28.138Z,72.97
2017-10-03T10:31:27.831Z,71.72
2017-10-03T10:32:28.142Z,72.01
2017-10-03T10:33:27.829Z,72.11
2017-10-03T10:34:28.144Z,71.72
2017-10-03T10:35:28.164Z,71.44
2017-10-03T10:36:28.143Z,71.44
2017-10-03T10:37:28.321Z,72.55
2017-10-03T10:38:28.148Z,71.78
2017-10-03T10:39:27.859Z,71.88
2017-10-03T10:40:27.843Z,73.32
2017-10-03T10:41:28.150Z,74.24
2017-10-03T10:42:28.151Z,73.76
2017-10-03T10:43:28.154Z,74.52
2017-10-03T10:44:27.843Z,75.35
2017-10-03T10:45:28.156Z,75.64
2017-10-03T10:46:28.158Z,76.02
2017-10-03T10:47:28.157Z,74.49
2017-10-03T10:48:27.852Z,74.97
2017-10-03T10:49:28.157Z,76.12
2017-10-03T10:50:27.856Z,77.26
2017-10-03T10:51:28.155Z,76.12
2017-10-03T10:52:28.159Z,76.69
2017-10-03T10:53:27.850Z,77.46
2017-10-03T10:54:27.857Z,78.51
2017-10-03T10:55:27.854Z,76.92
2017-10-03T10:56:28.164Z,77.59
2017-10-03T10:57:27.863Z,77.84
2017-10-03T10:58:28.164Z,77.88
2017-10-03T10:59:28.163Z,78.17
2017-10-03T11:00:27.857Z,79.03
2017-10-03T11:01:28.169Z,78.07
2017-10-03T11:02:27.854Z,77.88
2017-10-03T11:03:28.172Z,77.4
2017-10-03T11:04:27.866Z,77.21
2017-10-03T11:05:28.167Z,76.35
2017-10-03T11:06:28.170Z,75.9
2017-10-03T11:07:28.814Z,76.15
2017-10-03T11:08:28.191Z,74.37
2017-10-03T11:09:28.174Z,73.7
2017-10-03T11:10:27.867Z,72.36
2017-10-03T11:11:27.894Z,71.02
2017-10-03T11:12:28.178Z,71.4
2017-10-03T11:13:27.866Z,71.4
2017-10-03T11:14:28.179Z,70.92
2017-10-03T11:15:28.179Z,70.64
2017-10-03T11:16:27.871Z,71.4
2017-10-03T11:17:27.883Z,71.4
2017-10-03T11:18:28.181Z,70.86
2017-10-03T11:19:28.184Z,71.59
2017-10-03T11:20:28.189Z,70.64
2017-10-03T11:21:28.184Z,70.38
2017-10-03T11:22:28.192Z,69.9
2017-10-03T11:23:28.189Z,69.68
2017-10-03T11:24:28.189Z,69.96
2017-10-03T11:25:28.192Z,70.06
2017-10-03T11:26:28.195Z,69.48
2017-10-03T11:27:27.890Z,69.96
2017-10-03T11:28:27.893Z,70.44
2017-10-03T11:29:28.195Z,70.06
2017-10-03T11:30:28.198Z,71.02
2017-10-03T11:31:28.195Z,70.92
2017-10-03T11:32:28.199Z,71.21
2017-10-03T11:33:28.201Z,71.31
2017-10-03T11:34:27.892Z,71.11
2017-10-03T11:35:27.911Z,69.77
2017-10-03T11:36:27.892Z,69.58
2017-10-03T11:37:28.206Z,70.15
2017-10-03T11:38:28.203Z,71.11
2017-10-03T11:39:28.206Z,71.37
2017-10-03T11:40:28.214Z,71.75
2017-10-03T11:41:28.207Z,72.03
2017-10-03T11:42:28.208Z,72.32
2017-10-03T11:43:27.903Z,72.8
2017-10-03T11:44:28.217Z,73.47
2017-10-03T11:45:28.212Z,73.76
2017-10-03T11:46:28.215Z,73.57
2017-10-03T11:47:28.212Z,74.18
2017-10-03T11:48:28.213Z,73.32
2017-10-03T11:49:27.914Z,72.45
2017-10-03T11:50:27.907Z,72.94
2017-10-03T11:51:27.909Z,72.07
2017-10-03T11:52:28.219Z,72.27
2017-10-03T11:53:28.220Z,71.98
2017-10-03T11:54:28.219Z,72.07
2017-10-03T11:55:27.914Z,71.69
2017-10-03T11:56:27.913Z,71.98
2017-10-03T11:57:28.223Z,71.88
2017-10-03T11:58:27.928Z,71.11
2017-10-03T11:59:28.226Z,71.02
2017-10-03T12:00:27.980Z,71.31
2017-10-03T12:01:28.228Z,71.25
2017-10-03T12:02:28.288Z,70.96
2017-10-03T12:03:28.239Z,70.86
2017-10-03T12:04:27.922Z,69.42
2017-10-03T12:05:28.240Z,70.48
2017-10-03T12:06:28.241Z,70
2017-10-03T12:07:28.245Z,69.52
2017-10-03T12:08:28.081Z,69.04
2017-10-03T12:09:28.243Z,68.75
2017-10-03T12:10:28.259Z,70
2017-10-03T12:11:27.931Z,70.57
2017-10-03T12:12:27.934Z,69.13
2017-10-03T12:13:29.055Z,69.13
2017-10-03T12:14:28.248Z,69.33
2017-10-03T12:15:28.247Z,68.66
2017-10-03T12:16:27.944Z,69.71
2017-10-03T12:17:28.248Z,69.71
2017-10-03T12:18:28.252Z,70
2017-10-03T12:19:28.258Z,69.52
2017-10-03T12:20:27.951Z,70.44
2017-10-03T12:21:27.948Z,70.67
2017-10-03T12:22:27.948Z,71.05
2017-10-03T12:23:27.950Z,71.63
2017-10-03T12:24:28.258Z,72.01
2017-10-03T12:25:28.270Z,71.15
2017-10-03T12:26:28.270Z,70.29
2017-10-03T12:27:27.953Z,71.15
2017-10-03T12:28:27.955Z,71.47
2017-10-03T12:29:27.955Z,70.61
2017-10-03T12:30:28.266Z,70.8
2017-10-03T12:31:27.959Z,69.84
2017-10-03T12:32:28.272Z,68.88
2017-10-03T12:33:28.269Z,68.88
2017-10-03T12:34:28.270Z,68.66
2017-10-03T12:35:27.965Z,68.08
2017-10-03T12:36:28.274Z,67.99
2017-10-03T12:37:28.273Z,68.18
2017-10-03T12:38:27.968Z,68.66
2017-10-03T12:39:28.280Z,67.99
2017-10-03T12:40:28.298Z,67.5
2017-10-03T12:41:28.280Z,66.55
2017-10-03T12:42:28.294Z,67.25
2017-10-03T12:43:28.283Z,66.86
2017-10-03T12:44:28.292Z,66.49
2017-10-03T12:45:27.984Z,64.76
2017-10-03T12:46:28.300Z,64.5
2017-10-03T12:47:28.291Z,64.79
2017-10-03T12:48:28.302Z,64.69
2017-10-03T12:49:27.987Z,65.17
2017-10-03T12:50:28.307Z,65.75
2017-10-03T12:51:28.302Z,64.31
2017-10-03T12:52:28.306Z,64.98
2017-10-03T12:53:27.993Z,64.02